Time;durP1;ratioP1;P1;durP2;ratioP2;P2;SDS_P1;SDS_P2;PMS_P1;PMS_P2;Temp;Humidity;BMP_temperature;BMP_pressure;BME280_temperature;BME280_humidity;BME280_pressure;Samples;Min_cycle;Max_cycle;Signal;HPM_P1;HPM_P2
2022/01/24 00:01:38;;;;;;;;;;;5.40;99.90;;;;;;5073737;28;20231;-76
2022/01/24 00:04:04;;;;;;;;;;;5.50;99.90;;;;;;5075612;28;19927;-76
2022/01/24 00:06:31;;;;;;;;;;;5.50;99.90;;;;;;5075235;28;19917;-76
2022/01/24 00:08:57;;;;;;;;;;;5.50;99.90;;;;;;5075885;28;20200;-76
2022/01/24 00:11:24;;;;;;;;;;;5.50;99.90;;;;;;5074276;28;19919;-77
2022/01/24 00:26:51;;;;;;;;;;;5.50;99.90;;;;;;5073993;28;20373;-76
2022/01/24 00:29:18;;;;;;;;;;;5.50;99.90;;;;;;5073927;28;19912;-76
2022/01/24 00:31:43;;;;;;;;;;;5.50;99.90;;;;;;5073271;28;19921;-78
2022/01/24 00:34:09;;;;;;;;;;;5.40;99.90;;;;;;5072502;28;19921;-76
2022/01/24 00:36:35;;;;;;;;;;;5.40;99.90;;;;;;5065774;28;19912;-76
2022/01/24 00:39:01;;;;;;;;;;;5.40;99.90;;;;;;5067139;28;19979;-77
2022/01/24 00:41:27;;;;;;;;;;;5.40;99.90;;;;;;5071045;28;20304;-76
2022/01/24 00:46:35;;;;;;;;;;;5.40;99.90;;;;;;5068635;28;19970;-76
2022/01/24 00:57:01;;;;;;;;;;;5.40;99.90;;;;;;5066502;28;20223;-76
2022/01/24 00:59:27;;;;;;;;;;;5.40;99.90;;;;;;5040333;28;19916;-75
2022/01/24 01:01:52;;;;;;;;;;;5.40;99.90;;;;;;5072714;28;19912;-76
2022/01/24 01:04:21;;;;;;;;;;;5.40;99.90;;;;;;5069600;28;19965;-76
2022/01/24 01:06:47;;;;;;;;;;;5.30;99.90;;;;;;5061581;28;19921;-75
2022/01/24 01:20:10;;;;;;;;;;;5.40;99.90;;;;;;5074782;28;19922;-75
2022/01/24 01:22:36;;;;;;;;;;;5.30;99.90;;;;;;5071251;28;19974;-75
2022/01/24 01:25:01;;;;;;;;;;;5.30;99.90;;;;;;5074529;28;19952;-76
2022/01/24 01:27:35;;;;;;;;;;;5.30;99.90;;;;;;5073242;28;19962;-76
2022/01/24 01:30:07;;;;;;;;;;;5.30;99.90;;;;;;5073662;28;20103;-76
2022/01/24 01:35:26;;;;;;;;;;;5.20;99.90;;;;;;5066451;28;19919;-75
2022/01/24 01:38:16;;;;;;;;;;;5.30;99.90;;;;;;5074477;28;19954;-76
2022/01/24 01:52:25;;;;;;;;;;;5.30;99.90;;;;;;5074127;28;19978;-75
2022/01/24 01:54:34;;;;;;;;;;;5.20;99.90;;;;;;5078734;28;20322;-75
2022/01/24 01:57:00;;;;;;;;;;;5.20;99.90;;;;;;5069855;28;19916;-75
2022/01/24 01:59:25;;;;;;;;;;;5.20;99.90;;;;;;5063632;28;19955;-75
2022/01/24 02:01:51;;;;;;;;;;;5.20;99.90;;;;;;5078383;28;19944;-75
2022/01/24 02:04:17;;;;;;;;;;;5.20;99.90;;;;;;5070764;28;19986;-75
2022/01/24 02:06:43;;;;;;;;;;;5.10;99.90;;;;;;5078764;28;19913;-75
2022/01/24 02:09:10;;;;;;;;;;;5.10;99.90;;;;;;5076544;28;20290;-75
2022/01/24 02:11:36;;;;;;;;;;;5.00;99.90;;;;;;5073348;28;20240;-75
2022/01/24 02:14:06;;;;;;;;;;;5.00;99.90;;;;;;5077084;28;19929;-75
2022/01/24 02:16:48;;;;;;;;;;;5.00;99.90;;;;;;5077352;28;19923;-75
2022/01/24 02:19:51;;;;;;;;;;;5.10;99.90;;;;;;5069272;28;19916;-75
2022/01/24 02:24:31;;;;;;;;;;;5.00;99.90;;;;;;5077491;28;19920;-75
2022/01/24 02:26:58;;;;;;;;;;;5.00;99.90;;;;;;5077815;28;19917;-75
2022/01/24 02:32:08;;;;;;;;;;;5.00;99.90;;;;;;5076743;28;20016;-75
2022/01/24 02:34:36;;;;;;;;;;;5.10;99.90;;;;;;5077193;28;20591;-75
2022/01/24 02:37:07;;;;;;;;;;;5.10;99.90;;;;;;5075484;28;19916;-75
2022/01/24 02:52:59;;;;;;;;;;;5.10;99.90;;;;;;5077869;28;20326;-75
2022/01/24 02:55:24;;;;;;;;;;;5.00;99.90;;;;;;5076790;28;19913;-75
2022/01/24 02:57:50;;;;;;;;;;;5.00;99.90;;;;;;5077066;28;19919;-75
2022/01/24 03:00:15;;;;;;;;;;;5.00;99.90;;;;;;5077039;28;19912;-75
2022/01/24 03:02:41;;;;;;;;;;;5.10;99.90;;;;;;5075619;28;20019;-75
2022/01/24 03:05:07;;;;;;;;;;;5.10;99.90;;;;;;5076948;28;20299;-75
2022/01/24 03:07:33;;;;;;;;;;;5.10;99.90;;;;;;5075775;28;20311;-76
2022/01/24 03:10:01;;;;;;;;;;;5.10;99.90;;;;;;5077066;28;20219;-76
2022/01/24 03:12:58;;;;;;;;;;;5.10;99.90;;;;;;5072634;28;20262;-75
2022/01/24 03:15:13;;;;;;;;;;;5.10;99.90;;;;;;5076375;28;19924;-75
2022/01/24 03:17:38;;;;;;;;;;;5.00;99.90;;;;;;5076796;28;19913;-75
2022/01/24 03:20:04;;;;;;;;;;;5.10;99.90;;;;;;5076676;28;19916;-75
2022/01/24 03:22:30;;;;;;;;;;;5.10;99.90;;;;;;5076098;28;20011;-75
2022/01/24 03:24:56;;;;;;;;;;;5.10;99.90;;;;;;5071787;28;20003;-75
2022/01/24 03:27:21;;;;;;;;;;;5.10;99.90;;;;;;5075504;28;19997;-75
2022/01/24 03:29:47;;;;;;;;;;;5.10;99.90;;;;;;5076526;28;20420;-75
2022/01/24 03:32:12;;;;;;;;;;;5.20;99.90;;;;;;5075468;28;20264;-75
2022/01/24 03:34:40;;;;;;;;;;;5.20;99.90;;;;;;5075324;28;20054;-75
2022/01/24 03:37:06;;;;;;;;;;;5.20;99.90;;;;;;5075948;28;20230;-75
2022/01/24 03:39:31;;;;;;;;;;;5.10;99.90;;;;;;5071975;28;19925;-75
2022/01/24 03:41:57;;;;;;;;;;;5.10;99.90;;;;;;5074620;28;20003;-75
2022/01/24 03:44:24;;;;;;;;;;;5.00;99.90;;;;;;5076188;28;19927;-75
2022/01/24 03:49:45;;;;;;;;;;;5.00;99.90;;;;;;5076433;28;20296;-75
2022/01/24 03:52:06;;;;;;;;;;;5.00;99.90;;;;;;5073975;28;19912;-75
2022/01/24 03:54:31;;;;;;;;;;;5.10;99.90;;;;;;5074770;28;19920;-75
2022/01/24 03:56:57;;;;;;;;;;;5.10;99.90;;;;;;5073747;28;19943;-75
2022/01/24 03:59:22;;;;;;;;;;;5.10;99.90;;;;;;5076099;28;19917;-75
2022/01/24 04:01:48;;;;;;;;;;;5.10;99.90;;;;;;5076009;28;19944;-75
2022/01/24 04:04:13;;;;;;;;;;;5.10;99.90;;;;;;5075273;28;19920;-76
2022/01/24 04:06:39;;;;;;;;;;;5.10;99.90;;;;;;5073704;28;19917;-75
2022/01/24 04:09:05;;;;;;;;;;;5.10;99.90;;;;;;5076027;28;20208;-75
2022/01/24 04:11:35;;;;;;;;;;;5.10;99.90;;;;;;5075142;28;19958;-75
2022/01/24 04:14:21;;;;;;;;;;;5.10;99.90;;;;;;5074169;28;19920;-75
2022/01/24 04:16:53;;;;;;;;;;;5.10;99.90;;;;;;5073628;28;19917;-75
2022/01/24 04:22:16;;;;;;;;;;;5.10;99.90;;;;;;5014725;28;19963;-74
2022/01/24 04:24:42;;;;;;;;;;;5.10;99.90;;;;;;5070188;28;19920;-75
2022/01/24 04:27:08;;;;;;;;;;;5.00;99.90;;;;;;5075412;28;20326;-75
2022/01/24 04:29:34;;;;;;;;;;;5.00;99.90;;;;;;5075541;28;20272;-75
2022/01/24 04:32:00;;;;;;;;;;;5.00;99.90;;;;;;5067777;28;19919;-75
2022/01/24 04:34:26;;;;;;;;;;;5.00;99.90;;;;;;5075450;28;20000;-76
2022/01/24 04:36:51;;;;;;;;;;;5.10;99.90;;;;;;5074009;28;20395;-76
2022/01/24 04:39:17;;;;;;;;;;;5.00;99.90;;;;;;5075295;28;20224;-75
2022/01/24 04:41:46;;;;;;;;;;;5.10;99.90;;;;;;5069028;28;19912;-75
2022/01/24 04:53:27;;;;;;;;;;;5.10;99.90;;;;;;5054202;28;20259;-76
2022/01/24 04:55:11;;;;;;;;;;;5.00;99.90;;;;;;5047071;28;19912;-75
2022/01/24 04:57:37;;;;;;;;;;;5.10;99.90;;;;;;5072091;28;19909;-75
2022/01/24 05:00:05;;;;;;;;;;;5.10;99.90;;;;;;5075175;28;20331;-75
2022/01/24 05:02:31;;;;;;;;;;;5.00;99.90;;;;;;5065715;28;19913;-75
2022/01/24 05:04:56;;;;;;;;;;;5.00;99.90;;;;;;5068906;28;19913;-75
2022/01/24 05:07:22;;;;;;;;;;;4.90;99.90;;;;;;5068247;28;19999;-75
2022/01/24 05:10:09;;;;;;;;;;;5.00;99.90;;;;;;5073719;28;19912;-75
2022/01/24 05:21:23;;;;;;;;;;;4.90;99.90;;;;;;5069027;28;19921;-75
2022/01/24 05:21:31;;;;;;;;;;;4.90;99.90;;;;;;5032726;28;19923;-75
2022/01/24 05:23:56;;;;;;;;;;;5.00;99.90;;;;;;5059261;28;19975;-75
2022/01/24 05:26:22;;;;;;;;;;;4.90;99.90;;;;;;5074396;28;20402;-75
2022/01/24 05:28:48;;;;;;;;;;;4.90;99.90;;;;;;5075045;28;19977;-75
2022/01/24 05:31:13;;;;;;;;;;;5.00;99.90;;;;;;5071787;28;19916;-75
2022/01/24 05:33:39;;;;;;;;;;;5.00;99.90;;;;;;5066629;28;19912;-75
2022/01/24 05:36:04;;;;;;;;;;;4.90;99.90;;;;;;5071305;28;19918;-75
2022/01/24 05:38:30;;;;;;;;;;;4.90;99.90;;;;;;5071853;28;20311;-75
2022/01/24 05:40:56;;;;;;;;;;;4.90;99.90;;;;;;5070308;28;19977;-76
2022/01/24 05:43:21;;;;;;;;;;;4.90;99.90;;;;;;5067746;28;19928;-75
2022/01/24 05:45:47;;;;;;;;;;;4.90;99.90;;;;;;5070912;28;20193;-75
2022/01/24 05:48:13;;;;;;;;;;;5.00;99.90;;;;;;5065030;28;19999;-75
2022/01/24 05:50:38;;;;;;;;;;;5.00;99.90;;;;;;5070894;28;19913;-75
2022/01/24 05:53:04;;;;;;;;;;;5.00;99.90;;;;;;5071906;28;19923;-75
2022/01/24 05:55:30;;;;;;;;;;;4.90;99.90;;;;;;5069145;28;19920;-75
2022/01/24 05:57:56;;;;;;;;;;;5.00;99.90;;;;;;5072349;28;20303;-75
2022/01/24 06:00:22;;;;;;;;;;;4.90;99.90;;;;;;5072677;28;20204;-75
2022/01/24 06:02:48;;;;;;;;;;;4.90;99.90;;;;;;5072843;28;19916;-75
2022/01/24 06:05:13;;;;;;;;;;;4.90;99.90;;;;;;5072018;28;19919;-74
2022/01/24 06:07:39;;;;;;;;;;;4.80;99.90;;;;;;5069728;28;19912;-75
2022/01/24 06:10:05;;;;;;;;;;;4.70;99.90;;;;;;5070278;28;19916;-76
2022/01/24 06:12:31;;;;;;;;;;;4.70;99.90;;;;;;5069457;28;20003;-75
2022/01/24 06:14:57;;;;;;;;;;;4.60;99.90;;;;;;5070795;28;20359;-75
2022/01/24 06:17:22;;;;;;;;;;;4.70;99.90;;;;;;5064831;28;19920;-75
2022/01/24 06:19:48;;;;;;;;;;;4.70;99.90;;;;;;5072768;28;20373;-75
2022/01/24 06:22:13;;;;;;;;;;;4.80;99.90;;;;;;5069895;28;19939;-75
2022/01/24 06:24:39;;;;;;;;;;;4.80;99.90;;;;;;5070351;28;20022;-75
2022/01/24 06:27:05;;;;;;;;;;;4.80;99.90;;;;;;5068290;28;19913;-75
2022/01/24 06:29:30;;;;;;;;;;;4.90;99.90;;;;;;5073073;28;19917;-75
2022/01/24 06:31:56;;;;;;;;;;;4.80;99.90;;;;;;5065745;28;19970;-75
2022/01/24 06:34:21;;;;;;;;;;;4.80;99.90;;;;;;5072101;28;19928;-75
2022/01/24 06:36:47;;;;;;;;;;;4.80;99.90;;;;;;5071009;28;19958;-75
2022/01/24 06:39:14;;;;;;;;;;;4.80;99.90;;;;;;5074603;28;19943;-75
2022/01/24 06:41:42;;;;;;;;;;;4.80;99.90;;;;;;5074094;28;19916;-75
2022/01/24 06:44:07;;;;;;;;;;;4.80;99.90;;;;;;5072931;28;20258;-75
2022/01/24 06:46:33;;;;;;;;;;;4.80;99.90;;;;;;5074557;28;19913;-75
2022/01/24 06:48:59;;;;;;;;;;;4.70;99.90;;;;;;5076155;28;19916;-75
2022/01/24 06:51:25;;;;;;;;;;;4.80;99.90;;;;;;5067084;28;20007;-75
2022/01/24 06:53:50;;;;;;;;;;;4.70;99.90;;;;;;5074837;28;20000;-75
2022/01/24 06:56:16;;;;;;;;;;;4.70;99.90;;;;;;5074675;28;19920;-75
2022/01/24 06:58:42;;;;;;;;;;;4.70;99.90;;;;;;5074189;28;19921;-75
2022/01/24 07:01:07;;;;;;;;;;;4.70;99.90;;;;;;5069909;28;19921;-75
2022/01/24 07:03:34;;;;;;;;;;;4.70;99.90;;;;;;5070854;28;19917;-75
2022/01/24 07:05:59;;;;;;;;;;;4.80;99.90;;;;;;5074598;28;20368;-75
2022/01/24 07:08:25;;;;;;;;;;;4.70;99.90;;;;;;5075273;28;19928;-75
2022/01/24 07:10:51;;;;;;;;;;;4.70;99.90;;;;;;5069582;28;19920;-75
2022/01/24 07:13:16;;;;;;;;;;;4.70;99.90;;;;;;5074059;28;19912;-75
2022/01/24 07:15:52;;;;;;;;;;;4.60;99.90;;;;;;5074410;28;20207;-75
2022/01/24 07:20:52;;;;;;;;;;;4.50;99.90;;;;;;5075280;28;19920;-75
2022/01/24 07:23:18;;;;;;;;;;;4.60;99.90;;;;;;5075408;28;19920;-75
2022/01/24 07:25:44;;;;;;;;;;;4.60;99.90;;;;;;5074497;28;20592;-75
2022/01/24 07:28:10;;;;;;;;;;;4.60;99.90;;;;;;5070007;28;19912;-75
2022/01/24 07:30:35;;;;;;;;;;;4.60;99.90;;;;;;5075007;28;19979;-75
2022/01/24 07:33:01;;;;;;;;;;;4.60;99.90;;;;;;5075015;28;19916;-76
2022/01/24 07:35:26;;;;;;;;;;;4.50;99.90;;;;;;5071715;28;20254;-76
2022/01/24 07:37:52;;;;;;;;;;;4.50;99.90;;;;;;5071390;28;19912;-75
2022/01/24 07:40:20;;;;;;;;;;;4.60;99.90;;;;;;5066280;28;19974;-74
2022/01/24 07:43:09;;;;;;;;;;;4.50;99.90;;;;;;5075776;28;19946;-75
2022/01/24 07:45:36;;;;;;;;;;;4.50;99.90;;;;;;5073988;28;19956;-75
2022/01/24 07:48:02;;;;;;;;;;;4.60;99.90;;;;;;5073762;28;20342;-75
2022/01/24 07:50:27;;;;;;;;;;;4.60;99.90;;;;;;5074925;28;19944;-74
2022/01/24 07:52:55;;;;;;;;;;;4.50;99.90;;;;;;5055723;28;19956;-75
2022/01/24 07:55:20;;;;;;;;;;;4.50;99.90;;;;;;5071659;28;19923;-74
2022/01/24 07:57:46;;;;;;;;;;;4.50;99.90;;;;;;5068038;28;19913;-75
2022/01/24 08:00:12;;;;;;;;;;;4.50;99.90;;;;;;5074587;28;19917;-75
2022/01/24 08:02:38;;;;;;;;;;;4.40;99.90;;;;;;5072425;28;19917;-75
2022/01/24 08:05:04;;;;;;;;;;;4.40;99.90;;;;;;5073425;28;19916;-75
2022/01/24 08:07:30;;;;;;;;;;;4.40;99.90;;;;;;5070117;28;20015;-75
2022/01/24 08:09:55;;;;;;;;;;;4.40;99.90;;;;;;5073273;28;20008;-75
2022/01/24 08:12:21;;;;;;;;;;;4.40;99.90;;;;;;5075566;28;20129;-75
2022/01/24 08:14:46;;;;;;;;;;;4.40;99.90;;;;;;5073042;28;19920;-75
2022/01/24 08:17:12;;;;;;;;;;;4.40;99.90;;;;;;5074040;28;19958;-75
2022/01/24 08:19:37;;;;;;;;;;;4.40;99.90;;;;;;5074859;28;19958;-74
2022/01/24 08:22:04;;;;;;;;;;;4.50;99.90;;;;;;5075328;28;19920;-75
2022/01/24 08:24:30;;;;;;;;;;;4.60;99.90;;;;;;5073931;28;20327;-75
2022/01/24 08:26:55;;;;;;;;;;;4.60;99.90;;;;;;5051109;28;19916;-74
2022/01/24 08:29:21;;;;;;;;;;;4.60;99.90;;;;;;5069215;28;20439;-75
2022/01/24 08:31:46;;;;;;;;;;;4.60;99.90;;;;;;5066425;28;19913;-75
2022/01/24 08:34:12;;;;;;;;;;;4.70;99.90;;;;;;5068035;28;19935;-74
2022/01/24 08:36:37;;;;;;;;;;;4.70;99.90;;;;;;5071876;28;20700;-74
2022/01/24 08:39:07;;;;;;;;;;;4.60;99.90;;;;;;5073003;28;19916;-74
2022/01/24 08:41:47;;;;;;;;;;;4.60;99.90;;;;;;5072024;28;19995;-74
2022/01/24 08:46:57;;;;;;;;;;;4.60;99.90;;;;;;5070123;28;19920;-75
2022/01/24 08:49:23;;;;;;;;;;;4.70;99.90;;;;;;5067808;28;21381;-75
2022/01/24 08:51:48;;;;;;;;;;;4.70;99.90;;;;;;5071031;28;19917;-74
2022/01/24 08:54:14;;;;;;;;;;;4.70;99.90;;;;;;5073048;28;19912;-74
2022/01/24 08:56:40;;;;;;;;;;;4.70;99.90;;;;;;5073556;28;19923;-74
2022/01/24 08:59:05;;;;;;;;;;;4.70;99.90;;;;;;5074337;28;20330;-75
2022/01/24 09:01:31;;;;;;;;;;;4.70;99.90;;;;;;5070741;28;19923;-74
2022/01/24 09:03:56;;;;;;;;;;;4.70;99.90;;;;;;5071841;28;19934;-74
2022/01/24 09:06:22;;;;;;;;;;;4.60;99.90;;;;;;5064477;28;20323;-75
2022/01/24 09:09:00;;;;;;;;;;;4.60;99.90;;;;;;5072832;28;19916;-74
2022/01/24 09:11:30;;;;;;;;;;;4.60;99.90;;;;;;5070162;28;19908;-74
2022/01/24 09:13:56;;;;;;;;;;;4.70;99.90;;;;;;5080456;28;19923;-74
2022/01/24 09:16:21;;;;;;;;;;;4.70;99.90;;;;;;5070289;28;20007;-74
2022/01/24 09:18:47;;;;;;;;;;;4.70;99.90;;;;;;5068178;28;19920;-74
2022/01/24 09:21:12;;;;;;;;;;;4.70;99.90;;;;;;5066794;28;19916;-74
2022/01/24 09:23:38;;;;;;;;;;;4.90;99.90;;;;;;5069473;28;20022;-74
2022/01/24 09:26:04;;;;;;;;;;;4.80;99.90;;;;;;5069094;28;19916;-74
2022/01/24 09:28:29;;;;;;;;;;;4.80;99.90;;;;;;5070013;28;20001;-74
2022/01/24 09:30:55;;;;;;;;;;;4.80;99.90;;;;;;5067268;28;20003;-74
2022/01/24 09:33:21;;;;;;;;;;;4.80;99.90;;;;;;5070146;28;20261;-75
2022/01/24 09:35:47;;;;;;;;;;;4.80;99.90;;;;;;5068766;28;21584;-76
2022/01/24 09:38:12;;;;;;;;;;;4.80;99.90;;;;;;5068351;28;19916;-74
2022/01/24 09:40:38;;;;;;;;;;;4.80;99.90;;;;;;5069837;28;19970;-74
2022/01/24 09:43:04;;;;;;;;;;;4.80;99.90;;;;;;5062895;28;20296;-75
2022/01/24 09:45:30;;;;;;;;;;;5.00;99.90;;;;;;5067137;28;19955;-74
2022/01/24 09:47:56;;;;;;;;;;;5.00;99.90;;;;;;5066319;28;19963;-75
2022/01/24 09:50:22;;;;;;;;;;;4.90;99.90;;;;;;5069285;28;20235;-75
2022/01/24 09:52:48;;;;;;;;;;;5.00;99.90;;;;;;5066332;28;20542;-75
2022/01/24 09:55:15;;;;;;;;;;;5.00;99.90;;;;;;5068506;28;19924;-75
2022/01/24 09:57:43;;;;;;;;;;;5.00;99.90;;;;;;5061872;28;19952;-74
2022/01/24 10:00:10;;;;;;;;;;;5.00;99.90;;;;;;5065725;28;19920;-75
2022/01/24 10:02:36;;;;;;;;;;;4.90;99.90;;;;;;5081819;28;19912;-75
2022/01/24 10:05:33;;;;;;;;;;;5.00;99.90;;;;;;5063254;28;19970;-74
2022/01/24 10:08:00;;;;;;;;;;;5.00;99.90;;;;;;5056882;28;20299;-75
2022/01/24 10:10:26;;;;;;;;;;;5.10;99.90;;;;;;5069604;28;19916;-74
2022/01/24 10:18:05;;;;;;;;;;;5.20;99.90;;;;;;5070317;28;20231;-74
2022/01/24 10:20:35;;;;;;;;;;;5.20;99.90;;;;;;5072333;28;19920;-74
2022/01/24 10:23:21;;;;;;;;;;;5.20;99.90;;;;;;5071692;28;20011;-74
2022/01/24 10:25:52;;;;;;;;;;;5.20;99.90;;;;;;5071041;28;19928;-74
2022/01/24 10:28:24;;;;;;;;;;;5.30;99.90;;;;;;5073367;28;19967;-74
2022/01/24 10:31:03;;;;;;;;;;;5.30;99.90;;;;;;5068899;28;19920;-75
2022/01/24 10:33:29;;;;;;;;;;;5.30;99.90;;;;;;5069246;28;19920;-74
2022/01/24 10:35:54;;;;;;;;;;;5.40;99.90;;;;;;5072710;28;20019;-74
2022/01/24 10:38:54;;;;;;;;;;;5.40;99.90;;;;;;5071781;28;19938;-74
2022/01/24 10:41:27;;;;;;;;;;;5.40;99.90;;;;;;5088634;28;19925;-74
2022/01/24 10:43:56;;;;;;;;;;;5.40;99.90;;;;;;5070301;28;19925;-74
2022/01/24 10:46:23;;;;;;;;;;;5.40;99.90;;;;;;5071255;28;19923;-75
2022/01/24 10:48:59;;;;;;;;;;;5.40;99.90;;;;;;5071721;28;19969;-74
2022/01/24 10:51:25;;;;;;;;;;;5.40;99.90;;;;;;5087105;28;19923;-74
2022/01/24 10:53:52;;;;;;;;;;;5.40;99.90;;;;;;5064266;28;19916;-74
2022/01/24 10:56:27;;;;;;;;;;;5.40;99.90;;;;;;5065167;28;19916;-75
2022/01/24 10:58:53;;;;;;;;;;;5.50;99.90;;;;;;5070067;28;20752;-74
2022/01/24 11:01:25;;;;;;;;;;;5.50;99.90;;;;;;5071691;28;19940;-74
2022/01/24 11:03:58;;;;;;;;;;;5.50;99.90;;;;;;5083398;28;20208;-74
2022/01/24 11:06:24;;;;;;;;;;;5.50;99.90;;;;;;5070017;28;19916;-74
2022/01/24 11:08:50;;;;;;;;;;;5.50;99.90;;;;;;5072055;28;20311;-74
2022/01/24 11:11:15;;;;;;;;;;;5.50;99.90;;;;;;5072073;28;19970;-74
2022/01/24 11:13:43;;;;;;;;;;;5.50;99.90;;;;;;5070528;28;19927;-74
2022/01/24 11:16:09;;;;;;;;;;;5.60;99.90;;;;;;5072526;28;19956;-74
2022/01/24 11:18:34;;;;;;;;;;;5.60;99.90;;;;;;5069957;28;19966;-74
2022/01/24 11:21:05;;;;;;;;;;;5.60;99.90;;;;;;5072529;28;19920;-74
2022/01/24 11:23:31;;;;;;;;;;;5.60;99.90;;;;;;5071537;28;20315;-74
2022/01/24 11:25:57;;;;;;;;;;;5.60;99.90;;;;;;5068313;28;19923;-74
2022/01/24 11:28:24;;;;;;;;;;;5.60;99.90;;;;;;5067641;28;19943;-74
2022/01/24 11:31:22;;;;;;;;;;;5.70;99.90;;;;;;5064268;28;19917;-74
2022/01/24 11:33:54;;;;;;;;;;;5.70;99.90;;;;;;5009288;28;20516;-74
2022/01/24 11:36:34;;;;;;;;;;;5.70;99.90;;;;;;5010726;28;19936;-74
2022/01/24 11:39:00;;;;;;;;;;;5.70;99.90;;;;;;5006799;28;20337;-74
2022/01/24 11:41:32;;;;;;;;;;;5.70;99.90;;;;;;5007818;28;20073;-74
2022/01/24 11:44:06;;;;;;;;;;;5.70;99.90;;;;;;5010471;28;20094;-74
2022/01/24 11:46:45;;;;;;;;;;;5.70;99.90;;;;;;5007986;28;20240;-74
2022/01/24 11:49:17;;;;;;;;;;;5.70;99.90;;;;;;4994259;28;19928;-74
2022/01/24 11:51:44;;;;;;;;;;;5.70;99.90;;;;;;5009348;28;19922;-74
2022/01/24 11:54:31;;;;;;;;;;;5.70;99.90;;;;;;5010038;28;19913;-74
2022/01/24 11:57:15;;;;;;;;;;;5.80;99.90;;;;;;5009968;28;20331;-74
2022/01/24 11:59:40;;;;;;;;;;;5.80;99.90;;;;;;4993517;28;19927;-74
2022/01/24 12:02:13;;;;;;;;;;;5.70;99.90;;;;;;5009659;28;19917;-74
2022/01/24 12:04:49;;;;;;;;;;;5.70;99.90;;;;;;5008243;28;19921;-74
2022/01/24 12:07:19;;;;;;;;;;;5.80;99.90;;;;;;5007727;28;20487;-74
2022/01/24 12:09:45;;;;;;;;;;;5.80;99.90;;;;;;5057984;28;19917;-74
2022/01/24 12:12:35;;;;;;;;;;;5.80;99.90;;;;;;5066919;28;20015;-74
2022/01/24 12:15:01;;;;;;;;;;;5.80;99.90;;;;;;5063599;28;19928;-74
2022/01/24 12:17:47;;;;;;;;;;;5.80;99.90;;;;;;5065969;28;19913;-74
2022/01/24 12:20:30;;;;;;;;;;;5.80;99.90;;;;;;5067788;28;19932;-74
2022/01/24 12:22:56;;;;;;;;;;;5.80;99.90;;;;;;5050168;28;19925;-74
2022/01/24 12:25:41;;;;;;;;;;;5.80;99.90;;;;;;5043332;28;19921;-74
2022/01/24 12:28:20;;;;;;;;;;;5.80;99.90;;;;;;5063498;28;20011;-74
2022/01/24 12:30:56;;;;;;;;;;;5.80;99.90;;;;;;5064113;28;19916;-74
2022/01/24 12:33:33;;;;;;;;;;;5.80;99.90;;;;;;5065307;28;19966;-74
2022/01/24 12:35:59;;;;;;;;;;;5.80;99.90;;;;;;5066527;28;19916;-74
2022/01/24 12:38:24;;;;;;;;;;;5.80;99.90;;;;;;5063586;28;20007;-74
2022/01/24 12:41:10;;;;;;;;;;;5.70;99.90;;;;;;5060978;28;20000;-73
2022/01/24 12:43:52;;;;;;;;;;;5.70;99.90;;;;;;5063734;28;20218;-73
2022/01/24 12:46:20;;;;;;;;;;;5.80;99.90;;;;;;5060160;28;19923;-74
2022/01/24 12:48:49;;;;;;;;;;;5.70;99.90;;;;;;5064616;28;19916;-73
2022/01/24 12:51:16;;;;;;;;;;;5.60;99.90;;;;;;5083721;28;19975;-74
2022/01/24 12:53:41;;;;;;;;;;;5.70;99.90;;;;;;5062925;28;20303;-73
2022/01/24 12:56:07;;;;;;;;;;;5.60;99.90;;;;;;5063695;28;19927;-73
2022/01/24 12:58:37;;;;;;;;;;;5.60;99.90;;;;;;5061695;28;19916;-73
2022/01/24 13:01:21;;;;;;;;;;;5.60;99.90;;;;;;5064533;28;19954;-74
2022/01/24 13:04:02;;;;;;;;;;;5.60;99.90;;;;;;5063115;28;19921;-73
2022/01/24 13:06:33;;;;;;;;;;;5.50;99.90;;;;;;5063849;28;20005;-73
2022/01/24 13:09:01;;;;;;;;;;;5.50;99.90;;;;;;5061380;28;19963;-73
2022/01/24 13:11:29;;;;;;;;;;;5.50;99.90;;;;;;5062474;28;19959;-73
2022/01/24 13:14:05;;;;;;;;;;;5.50;99.90;;;;;;5061354;28;19917;-73
2022/01/24 13:22:27;;;;;;;;;;;5.40;99.90;;;;;;5057575;28;19923;-73
2022/01/24 13:25:11;;;;;;;;;;;5.40;99.90;;;;;;5052289;28;19931;-74
2022/01/24 13:27:38;;;;;;;;;;;5.40;99.90;;;;;;5092066;28;20418;-73
2022/01/24 13:30:05;;;;;;;;;;;5.30;99.90;;;;;;5064448;28;19920;-74
2022/01/24 13:32:41;;;;;;;;;;;5.30;99.90;;;;;;5063749;28;20286;-73
2022/01/24 13:35:36;;;;;;;;;;;5.40;99.90;;;;;;5052146;28;21879;-74
2022/01/24 13:38:10;;;;;;;;;;;5.30;99.90;;;;;;5062257;28;20207;-74
2022/01/24 13:40:40;;;;;;;;;;;5.30;99.90;;;;;;5065034;28;19920;-74
2022/01/24 13:43:06;;;;;;;;;;;5.40;99.90;;;;;;5063170;28;19929;-73
2022/01/24 13:45:32;;;;;;;;;;;5.50;99.90;;;;;;5057980;28;20391;-73
2022/01/24 13:47:59;;;;;;;;;;;5.40;99.90;;;;;;5065996;28;19961;-73
2022/01/24 13:50:25;;;;;;;;;;;5.40;99.90;;;;;;5088448;28;20412;-73
2022/01/24 13:52:51;;;;;;;;;;;5.40;99.90;;;;;;5065037;28;19920;-73
2022/01/24 13:55:18;;;;;;;;;;;5.40;99.90;;;;;;5066126;28;19924;-73
2022/01/24 13:57:44;;;;;;;;;;;5.40;99.90;;;;;;5067022;28;19923;-73
2022/01/24 14:00:10;;;;;;;;;;;5.30;99.90;;;;;;5066733;28;19924;-73
2022/01/24 14:02:35;;;;;;;;;;;5.40;99.90;;;;;;5066013;28;19916;-73
2022/01/24 14:05:03;;;;;;;;;;;5.40;99.90;;;;;;5065729;28;19917;-73
2022/01/24 14:07:30;;;;;;;;;;;5.30;99.90;;;;;;5067742;28;19936;-73
2022/01/24 14:09:57;;;;;;;;;;;5.10;99.90;;;;;;5067276;28;20003;-74
2022/01/24 14:12:26;;;;;;;;;;;5.20;99.90;;;;;;5067229;28;20329;-73
2022/01/24 14:15:09;;;;;;;;;;;5.10;99.90;;;;;;5065547;28;19979;-73
2022/01/24 14:20:04;;;;;;;;;;;5.00;99.90;;;;;;5068055;28;19979;-73
2022/01/24 14:22:40;;;;;;;;;;;5.00;99.90;;;;;;5066116;28;19925;-73
2022/01/24 14:25:10;;;;;;;;;;;5.10;99.90;;;;;;5048081;28;19931;-73
2022/01/24 14:27:43;;;;;;;;;;;5.20;99.90;;;;;;5067680;28;19916;-73
2022/01/24 14:30:11;;;;;;;;;;;5.20;99.90;;;;;;5066608;28;19921;-73
2022/01/24 14:32:39;;;;;;;;;;;5.20;99.90;;;;;;5068065;28;20042;-73
2022/01/24 14:35:05;;;;;;;;;;;5.20;99.90;;;;;;5059270;28;19923;-74
2022/01/24 14:37:44;;;;;;;;;;;5.20;99.90;;;;;;5061113;28;19974;-73
2022/01/24 14:40:13;;;;;;;;;;;5.20;99.90;;;;;;5067751;28;19925;-73
2022/01/24 14:42:46;;;;;;;;;;;5.30;99.90;;;;;;5065778;28;19928;-73
2022/01/24 14:45:11;;;;;;;;;;;5.30;99.90;;;;;;5064299;28;19923;-74
2022/01/24 14:47:37;;;;;;;;;;;5.30;99.90;;;;;;5065543;28;19917;-73
2022/01/24 14:50:03;;;;;;;;;;;5.30;99.90;;;;;;5064282;28;19917;-73
2022/01/24 14:52:33;;;;;;;;;;;5.30;99.90;;;;;;5065013;28;19962;-72
2022/01/24 14:54:59;;;;;;;;;;;5.20;99.90;;;;;;5064641;28;20333;-73
2022/01/24 14:57:25;;;;;;;;;;;5.20;99.90;;;;;;5064651;28;19917;-73
2022/01/24 14:59:50;;;;;;;;;;;5.10;99.90;;;;;;5065322;28;19928;-73
2022/01/24 15:02:16;;;;;;;;;;;5.10;99.90;;;;;;5066006;28;19916;-73
2022/01/24 15:04:42;;;;;;;;;;;5.10;99.90;;;;;;5062342;28;20806;-73
2022/01/24 15:07:08;;;;;;;;;;;5.00;99.90;;;;;;5064655;28;19925;-72
2022/01/24 15:09:34;;;;;;;;;;;5.00;99.90;;;;;;5066656;28;20208;-73
2022/01/24 15:12:00;;;;;;;;;;;5.00;99.90;;;;;;5065451;28;20481;-73
2022/01/24 15:14:36;;;;;;;;;;;5.00;99.90;;;;;;5062342;28;19978;-73
2022/01/24 15:27:37;;;;;;;;;;;4.90;99.90;;;;;;5058818;28;19916;-73
2022/01/24 15:30:04;;;;;;;;;;;4.80;99.90;;;;;;5067268;28;20001;-73
2022/01/24 15:32:29;;;;;;;;;;;4.90;99.90;;;;;;5072247;28;19947;-73
2022/01/24 15:34:55;;;;;;;;;;;4.80;99.90;;;;;;5069316;28;20323;-72
2022/01/24 15:37:20;;;;;;;;;;;4.80;99.90;;;;;;5068394;28;20343;-72
2022/01/24 15:39:46;;;;;;;;;;;4.80;99.90;;;;;;5071100;28;19916;-73
2022/01/24 15:42:35;;;;;;;;;;;4.90;99.90;;;;;;5063546;28;20308;-72
2022/01/24 15:47:35;;;;;;;;;;;4.70;99.90;;;;;;5057260;28;19995;-73
2022/01/24 15:50:04;;;;;;;;;;;4.70;99.90;;;;;;5066782;28;19986;-73
2022/01/24 15:52:30;;;;;;;;;;;4.70;99.90;;;;;;5067155;28;19931;-73
2022/01/24 15:54:56;;;;;;;;;;;4.60;99.90;;;;;;5066304;28;19920;-72
2022/01/24 15:57:40;;;;;;;;;;;4.60;99.90;;;;;;5084355;28;19955;-73
2022/01/24 16:00:07;;;;;;;;;;;4.60;99.90;;;;;;5070179;28;20363;-73
2022/01/24 16:02:33;;;;;;;;;;;4.60;99.90;;;;;;5070426;28;19920;-73
2022/01/24 16:04:58;;;;;;;;;;;4.60;99.90;;;;;;5063578;28;19940;-73
2022/01/24 16:07:24;;;;;;;;;;;4.50;99.90;;;;;;5071022;28;20193;-72
2022/01/24 16:09:50;;;;;;;;;;;4.60;99.90;;;;;;5068650;28;20232;-72
2022/01/24 16:12:15;;;;;;;;;;;4.50;99.90;;;;;;5080021;28;20092;-72
2022/01/24 16:14:41;;;;;;;;;;;4.60;99.90;;;;;;5061286;28;19916;-73
2022/01/24 16:17:06;;;;;;;;;;;4.60;99.90;;;;;;5069697;28;19926;-73
2022/01/24 16:19:39;;;;;;;;;;;4.50;99.90;;;;;;5072472;28;19917;-74
2022/01/24 16:27:02;;;;;;;;;;;4.60;99.90;;;;;;5072587;28;19951;-73
2022/01/24 16:29:28;;;;;;;;;;;4.50;99.90;;;;;;5070904;28;19916;-73
2022/01/24 16:31:53;;;;;;;;;;;4.60;99.90;;;;;;5071434;28;19920;-73
2022/01/24 16:34:19;;;;;;;;;;;4.50;99.90;;;;;;5072007;28;19917;-73
2022/01/24 16:36:45;;;;;;;;;;;4.50;99.90;;;;;;5067128;28;19959;-73
2022/01/24 16:39:16;;;;;;;;;;;4.50;99.90;;;;;;5076888;28;19956;-73
2022/01/24 16:41:50;;;;;;;;;;;4.50;99.90;;;;;;5063676;28;20326;-73
2022/01/24 16:44:52;;;;;;;;;;;4.50;99.90;;;;;;5069330;28;19978;-72